createdAt,value
2023-03-02T00:01:11.598Z,1.87
2023-03-02T00:03:38.044Z,1.91
2023-03-02T00:06:05.490Z,1.89
2023-03-02T00:08:32.900Z,1.84
2023-03-02T00:10:59.248Z,1.76
2023-03-02T00:13:25.588Z,1.79
2023-03-02T00:15:59.226Z,1.85
2023-03-02T00:18:26.446Z,1.89
2023-03-02T00:20:52.805Z,1.91
2023-03-02T00:23:19.278Z,1.78
2023-03-02T00:25:45.618Z,1.83
2023-03-02T00:28:12.106Z,1.88
2023-03-02T00:30:38.481Z,1.95
2023-03-02T00:33:05.048Z,1.91
2023-03-02T00:35:31.864Z,1.89
2023-03-02T00:37:58.334Z,1.88
2023-03-02T00:40:24.671Z,1.86
2023-03-02T00:42:51.200Z,1.88
2023-03-02T00:45:18.352Z,1.92
2023-03-02T00:47:44.733Z,1.93
2023-03-02T00:50:11.361Z,1.96
2023-03-02T00:52:37.769Z,2.01
2023-03-02T00:55:04.132Z,2.02
2023-03-02T00:57:30.599Z,2.05
2023-03-02T00:59:57.173Z,2.06
2023-03-02T01:02:23.674Z,2.05
2023-03-02T01:04:50.234Z,2.09
2023-03-02T01:07:16.631Z,2.10
2023-03-02T01:09:43.149Z,2.12
2023-03-02T01:12:09.566Z,2.13
2023-03-02T01:14:36.059Z,2.13
2023-03-02T01:17:02.413Z,2.11
2023-03-02T01:22:19.207Z,2.15
2023-03-02T01:24:45.916Z,2.12
2023-03-02T01:27:12.386Z,2.15
2023-03-02T01:29:39.819Z,2.11
2023-03-02T01:32:06.728Z,2.06
2023-03-02T01:34:33.166Z,2.03
2023-03-02T01:37:00.236Z,2.02
2023-03-02T01:39:29.530Z,2.06
2023-03-02T01:41:55.918Z,2.10
2023-03-02T01:44:24.633Z,2.08
2023-03-02T01:46:51.349Z,2.06
2023-03-02T01:49:17.694Z,2.08
2023-03-02T01:51:44.096Z,2.19
2023-03-02T01:54:13.110Z,2.16
2023-03-02T01:56:39.627Z,2.10
2023-03-02T01:59:06.014Z,2.07
2023-03-02T02:01:32.398Z,2.05
2023-03-02T02:03:59.100Z,2.06
2023-03-02T02:06:25.497Z,2.04
2023-03-02T02:08:54.309Z,2.07
2023-03-02T02:11:20.788Z,2.07
2023-03-02T02:13:47.150Z,2.01
2023-03-02T02:16:13.718Z,1.96
2023-03-02T02:18:40.307Z,1.94
2023-03-02T02:21:06.702Z,1.92
2023-03-02T02:23:33.100Z,1.84
2023-03-02T02:25:59.486Z,1.83
2023-03-02T02:28:27.083Z,1.84
2023-03-02T02:30:53.788Z,1.86
2023-03-02T02:33:20.177Z,1.86
2023-03-02T02:35:46.570Z,1.89
2023-03-02T02:38:13.183Z,1.89
2023-03-02T02:40:44.505Z,1.88
2023-03-02T02:43:15.591Z,1.90
2023-03-02T02:45:42.262Z,1.92
2023-03-02T02:48:09.010Z,1.91
2023-03-02T02:50:35.490Z,1.88
2023-03-02T02:53:02.891Z,1.84
2023-03-02T02:55:30.428Z,1.80
2023-03-02T02:57:56.806Z,1.78
2023-03-02T03:00:23.153Z,1.80
2023-03-02T03:02:49.923Z,1.82
2023-03-02T03:05:16.311Z,1.86
2023-03-02T03:07:42.664Z,1.86
2023-03-02T03:10:09.478Z,1.91
2023-03-02T03:12:35.895Z,1.90
2023-03-02T03:15:09.698Z,1.89
2023-03-02T03:17:36.112Z,1.90
2023-03-02T03:20:02.452Z,1.89
2023-03-02T03:22:29.388Z,1.91
2023-03-02T03:24:55.874Z,1.86
2023-03-02T03:27:22.348Z,1.85
2023-03-02T03:29:48.737Z,1.91
2023-03-02T03:32:15.390Z,1.89
2023-03-02T03:34:43.891Z,1.86
2023-03-02T03:37:10.385Z,1.84
2023-03-02T03:39:36.984Z,1.83
2023-03-02T03:42:07.627Z,1.86
2023-03-02T03:44:34.007Z,1.88
2023-03-02T03:47:00.796Z,1.87
2023-03-02T03:49:28.290Z,1.93
2023-03-02T03:51:54.662Z,1.98
2023-03-02T03:54:21.067Z,1.90
2023-03-02T03:56:49.992Z,1.85
2023-03-02T03:59:16.460Z,1.84
2023-03-02T04:01:42.947Z,1.85
2023-03-02T04:04:09.574Z,1.84
2023-03-02T04:06:36.020Z,1.85
2023-03-02T04:09:03.378Z,1.82
2023-03-02T04:11:39.137Z,1.84
2023-03-02T04:14:05.660Z,1.88
2023-03-02T04:16:34.425Z,1.87
2023-03-02T04:19:01.007Z,1.89
2023-03-02T04:21:27.408Z,1.91
2023-03-02T04:23:57.267Z,1.94
2023-03-02T04:26:25.938Z,1.97
2023-03-02T04:28:55.808Z,1.99
2023-03-02T04:31:22.389Z,2.01
2023-03-02T04:33:49.120Z,2.03
2023-03-02T04:36:17.901Z,2.05
2023-03-02T04:38:45.520Z,2.04
2023-03-02T04:41:13.435Z,2.03
2023-03-02T04:43:40.225Z,2.05
2023-03-02T04:46:06.647Z,2.08
2023-03-02T04:48:33.079Z,2.08
2023-03-02T04:50:59.632Z,2.07
2023-03-02T04:53:26.155Z,2.10
2023-03-02T04:55:52.518Z,2.12
2023-03-02T04:58:18.923Z,2.13
2023-03-02T05:00:45.284Z,2.12
2023-03-02T05:03:11.680Z,2.10
2023-03-02T05:05:38.404Z,2.12
2023-03-02T05:08:07.405Z,2.15
2023-03-02T05:10:34.354Z,2.17
2023-03-02T05:13:01.064Z,2.18
2023-03-02T05:15:27.432Z,2.20
2023-03-02T05:17:53.977Z,2.21
2023-03-02T05:20:20.721Z,2.22
2023-03-02T05:22:47.207Z,2.23
2023-03-02T05:25:15.014Z,2.16
2023-03-02T05:27:41.436Z,2.14
2023-03-02T05:30:08.395Z,2.13
2023-03-02T05:32:35.375Z,2.07
2023-03-02T05:35:01.779Z,2.12
2023-03-02T05:37:28.287Z,2.14
2023-03-02T05:39:55.666Z,2.18
2023-03-02T05:42:24.219Z,2.17
2023-03-02T05:44:50.782Z,2.18
2023-03-02T05:47:18.248Z,2.19
2023-03-02T05:49:44.753Z,2.22
2023-03-02T05:52:11.322Z,2.27
2023-03-02T05:54:37.946Z,2.27
2023-03-02T05:57:05.523Z,2.24
2023-03-02T05:59:31.939Z,2.22
2023-03-02T06:01:58.592Z,2.21
2023-03-02T06:04:25.436Z,2.23
2023-03-02T06:06:52.251Z,2.25
2023-03-02T06:09:18.693Z,2.25
2023-03-02T06:11:45.086Z,2.22
2023-03-02T06:14:11.441Z,2.19
2023-03-02T06:16:38.382Z,2.14
2023-03-02T06:19:06.005Z,2.16
2023-03-02T06:21:32.504Z,2.14
2023-03-02T06:23:59.287Z,2.14
2023-03-02T06:26:25.695Z,2.16
2023-03-02T06:28:53.901Z,2.19
2023-03-02T06:31:20.850Z,2.28
2023-03-02T06:33:54.099Z,2.39
2023-03-02T06:36:20.627Z,2.31
2023-03-02T06:38:49.454Z,2.32
2023-03-02T06:41:16.875Z,2.31
2023-03-02T06:43:43.267Z,2.33
2023-03-02T06:46:09.874Z,2.37
2023-03-02T06:48:36.353Z,2.38
2023-03-02T06:51:04.999Z,2.41
2023-03-02T06:53:33.440Z,2.41
2023-03-02T06:55:59.836Z,2.44
2023-03-02T06:58:26.885Z,2.45
2023-03-02T07:00:55.719Z,2.42
2023-03-02T07:03:22.130Z,2.43
2023-03-02T07:05:48.592Z,2.43
2023-03-02T07:08:15.213Z,2.47
2023-03-02T07:10:42.359Z,2.33
2023-03-02T07:13:09.847Z,2.29
2023-03-02T07:15:36.244Z,2.23
2023-03-02T07:18:03.330Z,2.25
2023-03-02T07:20:29.770Z,2.29
2023-03-02T07:22:56.187Z,2.31
2023-03-02T07:25:22.839Z,2.29
2023-03-02T07:27:49.242Z,2.34
2023-03-02T07:30:15.668Z,2.38
2023-03-02T07:32:42.136Z,2.38
2023-03-02T07:35:08.516Z,2.43
2023-03-02T07:37:34.875Z,2.47
2023-03-02T07:40:01.285Z,2.51
2023-03-02T07:42:28.690Z,2.53
2023-03-02T07:44:56.683Z,2.53
2023-03-02T07:47:23.095Z,2.55
2023-03-02T07:49:52.379Z,2.61
2023-03-02T07:52:18.985Z,2.58
2023-03-02T07:54:45.335Z,2.63
2023-03-02T07:57:11.669Z,2.66
2023-03-02T07:59:38.244Z,2.69
2023-03-02T08:02:04.942Z,2.76
2023-03-02T08:04:31.649Z,2.81
2023-03-02T08:06:58.356Z,2.85
2023-03-02T08:09:24.752Z,2.86
2023-03-02T08:11:51.133Z,2.94
2023-03-02T08:14:17.502Z,2.97
2023-03-02T08:16:43.891Z,3.02
2023-03-02T08:19:10.376Z,3.02
2023-03-02T08:21:36.910Z,3.08
2023-03-02T08:24:03.530Z,3.14
2023-03-02T08:26:30.232Z,3.27
2023-03-02T08:28:56.636Z,3.40
2023-03-02T08:31:24.108Z,3.47
2023-03-02T08:33:51.546Z,3.61
2023-03-02T08:36:21.213Z,3.67
2023-03-02T08:38:47.625Z,3.68
2023-03-02T08:41:14.038Z,3.77
2023-03-02T08:43:40.487Z,3.84
2023-03-02T08:46:07.266Z,3.84
2023-03-02T08:48:33.668Z,3.93
2023-03-02T08:51:00.256Z,3.99
2023-03-02T08:53:26.644Z,4.03
2023-03-02T08:55:53.083Z,4.06
2023-03-02T08:58:20.565Z,3.83
2023-03-02T09:00:46.989Z,3.89
2023-03-02T09:03:13.484Z,3.94
2023-03-02T09:05:39.869Z,4.05
2023-03-02T09:08:06.248Z,4.16
2023-03-02T09:10:32.822Z,4.21
2023-03-02T09:12:59.163Z,4.28
2023-03-02T09:15:25.638Z,4.40
2023-03-02T09:17:52.175Z,4.26
2023-03-02T09:20:18.598Z,4.33
2023-03-02T09:22:45.199Z,4.47
2023-03-02T09:25:12.599Z,4.55
2023-03-02T09:27:39.308Z,4.63
2023-03-02T09:30:05.964Z,4.62
2023-03-02T09:32:32.475Z,4.63
2023-03-02T09:34:58.954Z,4.58
2023-03-02T09:37:25.307Z,4.66
2023-03-02T09:39:58.895Z,4.69
2023-03-02T09:42:32.120Z,4.79
2023-03-02T09:45:05.168Z,4.78
2023-03-02T09:47:35.737Z,4.85
2023-03-02T09:50:02.520Z,4.84
2023-03-02T09:52:28.978Z,4.83
2023-03-02T09:54:55.370Z,4.91
2023-03-02T09:57:21.870Z,4.89
2023-03-02T09:59:48.445Z,5.05
2023-03-02T10:02:14.909Z,5.16
2023-03-02T10:04:44.184Z,5.14
2023-03-02T10:07:10.605Z,5.02
2023-03-02T10:09:37.000Z,5.24
2023-03-02T10:12:03.608Z,5.41
2023-03-02T10:17:20.538Z,5.70
2023-03-02T10:19:46.910Z,5.72
2023-03-02T10:22:13.648Z,5.79
2023-03-02T10:24:42.294Z,5.78
2023-03-02T10:27:08.681Z,5.62
2023-03-02T10:29:35.068Z,5.59
2023-03-02T10:32:01.801Z,5.81
2023-03-02T10:34:30.244Z,6.07
2023-03-02T10:36:57.658Z,6.15
2023-03-02T10:39:24.227Z,6.24
2023-03-02T10:41:51.109Z,6.01
2023-03-02T10:44:17.865Z,6.12
2023-03-02T10:46:44.441Z,6.15
2023-03-02T10:49:10.913Z,6.30
2023-03-02T10:51:37.872Z,6.29
2023-03-02T10:54:04.236Z,6.59
2023-03-02T10:56:31.170Z,6.59
2023-03-02T10:58:57.736Z,6.55
2023-03-02T11:01:24.337Z,6.46
2023-03-02T11:03:50.827Z,6.54
2023-03-02T11:06:17.223Z,6.42
2023-03-02T11:08:43.580Z,6.39
2023-03-02T11:11:12.376Z,5.90
2023-03-02T11:13:38.793Z,5.94
2023-03-02T11:16:05.374Z,6.02
2023-03-02T11:18:34.312Z,6.26
2023-03-02T11:21:00.942Z,6.45
2023-03-02T11:23:29.576Z,6.63
2023-03-02T11:25:56.101Z,6.73
2023-03-02T11:28:22.577Z,6.77
2023-03-02T11:30:49.450Z,6.82
2023-03-02T11:33:17.120Z,6.22
2023-03-02T11:35:43.536Z,6.13
2023-03-02T11:38:09.982Z,6.22
2023-03-02T11:40:36.766Z,6.03
2023-03-02T11:43:05.659Z,5.79
2023-03-02T11:45:32.135Z,5.74
2023-03-02T11:48:03.345Z,5.59
2023-03-02T11:50:30.364Z,5.80
2023-03-02T11:52:57.233Z,5.84
2023-03-02T11:55:25.549Z,5.87
2023-03-02T11:57:51.955Z,5.89
2023-03-02T12:00:18.952Z,5.98
2023-03-02T12:02:48.154Z,6.14
2023-03-02T12:05:14.645Z,6.12
2023-03-02T12:07:42.547Z,6.28
2023-03-02T12:10:08.895Z,6.44
2023-03-02T12:12:36.181Z,6.52
2023-03-02T12:15:02.760Z,6.60
2023-03-02T12:17:29.128Z,6.51
2023-03-02T12:19:56.079Z,6.51
2023-03-02T12:22:22.548Z,6.66
2023-03-02T12:24:48.941Z,6.44
2023-03-02T12:27:15.769Z,6.20
2023-03-02T12:29:42.244Z,6.28
2023-03-02T12:32:08.867Z,6.47
2023-03-02T12:34:35.308Z,6.63
2023-03-02T12:37:02.100Z,6.27
2023-03-02T12:39:28.463Z,6.40
2023-03-02T12:41:55.177Z,6.63
2023-03-02T12:44:21.721Z,6.81
2023-03-02T12:46:48.057Z,7.04
2023-03-02T12:49:14.504Z,7.24
2023-03-02T12:51:40.954Z,7.39
2023-03-02T12:54:07.736Z,7.46
2023-03-02T12:56:35.403Z,7.63
2023-03-02T12:59:01.844Z,7.79
2023-03-02T13:01:28.420Z,7.92
2023-03-02T13:03:55.249Z,7.77
2023-03-02T13:06:22.286Z,7.80
2023-03-02T13:08:48.758Z,7.93
2023-03-02T13:11:15.181Z,8.00
2023-03-02T13:13:41.956Z,8.07
2023-03-02T13:16:09.471Z,8.09
2023-03-02T13:18:35.977Z,8.17
2023-03-02T13:21:02.358Z,8.12
2023-03-02T13:23:29.120Z,7.94
2023-03-02T13:25:55.839Z,7.86
2023-03-02T13:28:22.308Z,7.90
2023-03-02T13:30:48.776Z,8.06
2023-03-02T13:33:15.288Z,8.16
2023-03-02T13:35:41.662Z,8.24
2023-03-02T13:38:08.338Z,8.07
2023-03-02T13:40:34.742Z,8.22
2023-03-02T13:43:01.261Z,8.18
2023-03-02T13:45:27.755Z,8.23
2023-03-02T13:47:54.274Z,8.32
2023-03-02T13:50:20.769Z,8.45
2023-03-02T13:52:47.463Z,8.63
2023-03-02T13:55:14.131Z,8.70
2023-03-02T13:57:40.628Z,8.75
2023-03-02T14:00:09.629Z,8.70
2023-03-02T14:02:36.694Z,8.77
2023-03-02T14:05:03.196Z,8.94
2023-03-02T14:07:29.637Z,9.01
2023-03-02T14:09:57.585Z,9.00
2023-03-02T14:12:25.865Z,8.97
2023-03-02T14:14:52.519Z,9.13
2023-03-02T14:17:19.016Z,9.20
2023-03-02T14:19:45.418Z,9.22
2023-03-02T14:22:16.606Z,9.28
2023-03-02T14:24:43.100Z,9.38
2023-03-02T14:27:10.468Z,9.41
2023-03-02T14:29:36.859Z,9.32
2023-03-02T14:32:03.607Z,9.17
2023-03-02T14:34:30.083Z,9.11
2023-03-02T14:36:56.470Z,9.12
2023-03-02T14:39:22.986Z,9.16
2023-03-02T14:41:53.656Z,8.99
2023-03-02T14:44:22.781Z,9.12
2023-03-02T14:46:49.623Z,9.20
2023-03-02T14:49:16.116Z,9.21
2023-03-02T14:51:42.677Z,8.96
2023-03-02T14:54:13.423Z,8.98
2023-03-02T14:56:39.842Z,8.88
2023-03-02T14:59:06.219Z,8.92
2023-03-02T15:01:33.502Z,9.04
2023-03-02T15:04:00.426Z,9.18
2023-03-02T15:06:26.995Z,8.79
2023-03-02T15:08:54.406Z,8.67
2023-03-02T15:11:24.804Z,8.68
2023-03-02T15:13:52.227Z,8.91
2023-03-02T15:16:18.746Z,9.05
2023-03-02T15:18:45.464Z,9.15
2023-03-02T15:21:11.827Z,9.18
2023-03-02T15:23:38.313Z,9.27
2023-03-02T15:26:04.694Z,9.34
2023-03-02T15:28:31.108Z,9.39
2023-03-02T15:30:58.073Z,9.40
2023-03-02T15:33:26.799Z,9.44
2023-03-02T15:35:55.270Z,9.38
2023-03-02T15:38:21.973Z,9.41
2023-03-02T15:40:49.702Z,9.34
2023-03-02T15:43:16.044Z,9.26
2023-03-02T15:45:42.482Z,9.22
2023-03-02T15:48:09.234Z,9.32
2023-03-02T15:50:35.844Z,9.35
2023-03-02T15:53:02.476Z,9.09
2023-03-02T15:55:29.174Z,8.93
2023-03-02T15:57:59.582Z,8.95
2023-03-02T16:00:26.313Z,9.02
2023-03-02T16:02:52.731Z,9.01
2023-03-02T16:05:20.209Z,8.90
2023-03-02T16:07:50.738Z,8.64
2023-03-02T16:10:18.269Z,8.65
2023-03-02T16:12:44.984Z,8.61
2023-03-02T16:15:11.370Z,8.53
2023-03-02T16:17:37.812Z,8.47
2023-03-02T16:20:04.562Z,8.42
2023-03-02T16:22:30.978Z,8.29
2023-03-02T16:24:57.584Z,8.18
2023-03-02T16:27:23.939Z,8.14
2023-03-02T16:29:53.131Z,8.13
2023-03-02T16:32:20.703Z,8.06
2023-03-02T16:34:47.122Z,7.96
2023-03-02T16:37:14.633Z,7.87
2023-03-02T16:39:42.142Z,7.82
2023-03-02T16:42:11.030Z,7.77
2023-03-02T16:44:38.207Z,7.70
2023-03-02T16:47:04.623Z,7.72
2023-03-02T16:49:31.558Z,7.61
2023-03-02T16:51:58.208Z,7.55
2023-03-02T16:54:24.715Z,7.38
2023-03-02T16:56:51.224Z,7.27
2023-03-02T16:59:17.635Z,7.28
2023-03-02T17:01:44.934Z,7.24
2023-03-02T17:04:11.581Z,7.17
2023-03-02T17:06:40.142Z,7.10
2023-03-02T17:09:08.018Z,7.03
2023-03-02T17:11:34.458Z,6.97
2023-03-02T17:14:01.130Z,6.93
2023-03-02T17:16:27.489Z,6.81
2023-03-02T17:18:54.229Z,6.60
2023-03-02T17:21:20.957Z,6.60
2023-03-02T17:23:50.376Z,6.54
2023-03-02T17:26:17.005Z,6.40
2023-03-02T17:28:43.635Z,6.33
2023-03-02T17:31:12.396Z,6.31
2023-03-02T17:33:38.919Z,6.23
2023-03-02T17:36:05.837Z,6.14
2023-03-02T17:38:34.485Z,6.06
2023-03-02T17:41:00.861Z,5.96
2023-03-02T17:43:27.373Z,5.86
2023-03-02T17:45:53.955Z,5.80
2023-03-02T17:48:20.590Z,5.74
2023-03-02T17:50:47.746Z,5.64
2023-03-02T17:53:16.957Z,5.59
2023-03-02T17:55:43.565Z,5.52
2023-03-02T17:58:10.154Z,5.45
2023-03-02T18:00:37.272Z,5.36
2023-03-02T18:03:03.730Z,5.30
2023-03-02T18:05:30.375Z,5.23
2023-03-02T18:07:56.825Z,5.15
2023-03-02T18:10:25.841Z,5.08
2023-03-02T18:12:54.317Z,5.00
2023-03-02T18:15:20.883Z,4.93
2023-03-02T18:17:47.457Z,4.85
2023-03-02T18:20:14.051Z,4.78
2023-03-02T18:22:40.551Z,4.71
2023-03-02T18:25:06.968Z,4.65
2023-03-02T18:27:33.530Z,4.56
2023-03-02T18:30:00.245Z,4.51
2023-03-02T18:32:27.019Z,4.46
2023-03-02T18:34:53.897Z,4.39
2023-03-02T18:37:20.539Z,4.31
2023-03-02T18:39:47.566Z,4.20
2023-03-02T18:42:18.368Z,4.13
2023-03-02T18:44:46.228Z,4.04
2023-03-02T18:47:12.663Z,3.98
2023-03-02T18:49:39.945Z,3.93
2023-03-02T18:52:06.333Z,3.88
2023-03-02T18:54:32.684Z,3.83
2023-03-02T18:56:59.025Z,3.78
2023-03-02T18:59:25.484Z,3.70
2023-03-02T19:01:51.971Z,3.60
2023-03-02T19:04:19.408Z,3.48
2023-03-02T19:06:46.110Z,3.40
2023-03-02T19:09:13.563Z,3.33
2023-03-02T19:11:40.391Z,3.28
2023-03-02T19:14:06.999Z,3.21
2023-03-02T19:16:33.433Z,3.15
2023-03-02T19:19:00.173Z,3.08
2023-03-02T19:21:26.576Z,2.98
2023-03-02T19:23:52.943Z,2.88
2023-03-02T19:26:19.533Z,2.82
2023-03-02T19:28:46.567Z,2.79
2023-03-02T19:31:14.404Z,2.71
2023-03-02T19:33:41.132Z,2.69
2023-03-02T19:36:07.768Z,2.62
2023-03-02T19:38:34.149Z,2.56
2023-03-02T19:41:00.544Z,2.55
2023-03-02T19:43:28.402Z,2.51
2023-03-02T19:45:55.271Z,2.43
2023-03-02T19:48:21.694Z,2.41
2023-03-02T19:50:48.175Z,2.38
2023-03-02T19:53:14.849Z,2.35
2023-03-02T19:55:41.344Z,2.32
2023-03-02T19:58:07.722Z,2.29
2023-03-02T20:00:34.112Z,2.26
2023-03-02T20:03:03.161Z,2.24
2023-03-02T20:05:29.575Z,2.23
2023-03-02T20:07:55.920Z,2.16
2023-03-02T20:10:25.322Z,2.07
2023-03-02T20:12:51.662Z,1.99
2023-03-02T20:15:18.105Z,1.94
2023-03-02T20:17:44.466Z,1.88
2023-03-02T20:20:10.822Z,1.84
2023-03-02T20:22:37.210Z,1.79
2023-03-02T20:25:05.996Z,1.77
2023-03-02T20:27:35.417Z,1.78
2023-03-02T20:30:04.308Z,1.77
2023-03-02T20:32:31.581Z,1.75
2023-03-02T20:34:58.340Z,1.67
2023-03-02T20:37:24.899Z,1.63
2023-03-02T20:39:51.579Z,1.57
2023-03-02T20:42:17.973Z,1.57
2023-03-02T20:44:46.873Z,1.55
2023-03-02T20:47:13.269Z,1.55
2023-03-02T20:49:39.673Z,1.47
2023-03-02T20:52:07.092Z,1.41
2023-03-02T20:54:33.494Z,1.32
2023-03-02T20:56:59.879Z,1.28
2023-03-02T20:59:26.253Z,1.21
2023-03-02T21:01:52.626Z,1.16
2023-03-02T21:04:19.452Z,1.10
2023-03-02T21:06:52.961Z,1.07
2023-03-02T21:09:21.790Z,1.00
2023-03-02T21:11:48.186Z,0.92
2023-03-02T21:14:14.892Z,0.87
2023-03-02T21:16:41.353Z,0.82
2023-03-02T21:19:07.789Z,0.79
2023-03-02T21:21:41.466Z,0.70
2023-03-02T21:24:08.346Z,0.61
2023-03-02T21:26:34.689Z,0.53
2023-03-02T21:29:01.119Z,0.49
2023-03-02T21:31:27.540Z,0.46
2023-03-02T21:33:53.960Z,0.51
2023-03-02T21:36:20.591Z,0.57
2023-03-02T21:38:47.020Z,0.57
2023-03-02T21:41:13.760Z,0.57
2023-03-02T21:43:40.743Z,0.61
2023-03-02T21:46:07.274Z,0.65
2023-03-02T21:48:34.119Z,0.68
2023-03-02T21:51:03.012Z,0.70
2023-03-02T21:53:33.914Z,0.68
2023-03-02T21:56:00.305Z,0.60
2023-03-02T21:58:26.672Z,0.55
2023-03-02T22:00:54.544Z,0.49
2023-03-02T22:03:22.653Z,0.47
2023-03-02T22:05:49.048Z,0.46
2023-03-02T22:08:15.446Z,0.49
2023-03-02T22:10:41.962Z,0.52
2023-03-02T22:13:08.372Z,0.53
2023-03-02T22:15:35.816Z,0.51
2023-03-02T22:18:02.416Z,0.52
2023-03-02T22:20:32.838Z,0.49
2023-03-02T22:22:59.762Z,0.40
2023-03-02T22:25:26.638Z,0.39
2023-03-02T22:27:53.229Z,0.32
2023-03-02T22:30:20.580Z,0.27
2023-03-02T22:32:47.994Z,0.20
2023-03-02T22:35:14.436Z,0.18
2023-03-02T22:37:42.225Z,0.08
2023-03-02T22:40:09.027Z,-0.04
2023-03-02T22:42:35.457Z,-0.09
2023-03-02T22:45:01.895Z,-0.11
2023-03-02T22:47:29.254Z,-0.15
2023-03-02T22:49:57.644Z,-0.15
2023-03-02T22:52:24.109Z,-0.28
2023-03-02T22:54:50.743Z,-0.35
2023-03-02T22:57:17.796Z,-0.41
2023-03-02T22:59:46.462Z,-0.43
2023-03-02T23:02:12.984Z,-0.43
2023-03-02T23:04:47.065Z,-0.45
2023-03-02T23:07:13.925Z,-0.59
2023-03-02T23:09:40.373Z,-0.63
2023-03-02T23:12:07.256Z,-0.58
2023-03-02T23:14:36.251Z,-0.58
2023-03-02T23:17:02.759Z,-0.53
2023-03-02T23:19:32.842Z,-0.51
2023-03-02T23:21:59.243Z,-0.52
2023-03-02T23:24:25.598Z,-0.50
2023-03-02T23:26:53.605Z,-0.50
2023-03-02T23:29:20.526Z,-0.49
2023-03-02T23:31:49.880Z,-0.50
2023-03-02T23:34:16.578Z,-0.57
2023-03-02T23:36:42.974Z,-0.62
2023-03-02T23:39:09.586Z,-0.63
2023-03-02T23:41:36.741Z,-0.63
2023-03-02T23:44:05.682Z,-0.66
2023-03-02T23:46:32.075Z,-0.68
2023-03-02T23:48:58.747Z,-0.64
2023-03-02T23:51:25.404Z,-0.63
2023-03-02T23:53:51.811Z,-0.64
2023-03-02T23:56:19.217Z,-0.57
2023-03-02T23:58:45.930Z,-0.58
